createdAt,value
2024-01-08T00:01:04.140Z,3.95
2024-01-08T00:03:30.995Z,2.47
2024-01-08T00:05:58.003Z,2.75
2024-01-08T00:08:24.736Z,3.40
2024-01-08T00:10:51.400Z,3.45
2024-01-08T00:13:18.125Z,2.90
2024-01-08T00:15:44.889Z,2.83
2024-01-08T00:18:11.707Z,2.60
2024-01-08T00:20:38.457Z,2.33
2024-01-08T00:23:05.184Z,3.35
2024-01-08T00:25:31.859Z,3.92
2024-01-08T00:27:58.555Z,3.97
2024-01-08T00:30:26.167Z,3.63
2024-01-08T00:32:53.837Z,4.00
2024-01-08T00:35:22.887Z,3.45
2024-01-08T00:37:49.619Z,3.60
2024-01-08T00:40:16.418Z,2.15
2024-01-08T00:42:43.045Z,3.30
2024-01-08T00:45:09.875Z,4.30
2024-01-08T00:47:36.980Z,4.10
2024-01-08T00:50:06.623Z,3.47
2024-01-08T00:52:33.395Z,3.75
2024-01-08T00:55:06.220Z,4.03
2024-01-08T01:17:43.096Z,3.95
2024-01-08T01:20:10.335Z,4.10
2024-01-08T01:22:37.050Z,3.23
2024-01-08T01:25:04.128Z,2.45
2024-01-08T01:27:30.720Z,4.60
2024-01-08T01:29:57.490Z,3.90
2024-01-08T01:32:24.302Z,4.32
2024-01-08T01:34:50.970Z,5.18
2024-01-08T01:37:17.733Z,4.32
2024-01-08T01:39:44.396Z,3.13
2024-01-08T01:42:12.076Z,4.20
2024-01-08T01:44:40.147Z,4.78
2024-01-08T01:47:07.095Z,4.63
2024-01-08T01:49:34.049Z,5.07
2024-01-08T01:52:00.808Z,4.13
2024-01-08T01:54:28.997Z,5.20
2024-01-08T01:57:01.481Z,4.72
2024-01-08T01:59:30.238Z,4.95
2024-01-08T02:02:01.875Z,3.47
2024-01-08T02:04:31.705Z,4.80
2024-01-08T02:07:00.681Z,3.95
2024-01-08T02:09:28.371Z,4.63
2024-01-08T02:11:55.995Z,4.15
2024-01-08T02:14:22.773Z,4.30
2024-01-08T02:16:50.613Z,4.47
2024-01-08T02:21:44.294Z,3.97
2024-01-08T02:24:11.879Z,4.45
2024-01-08T02:26:38.700Z,4.57
2024-01-08T02:29:06.238Z,1.88
2024-01-08T02:31:35.656Z,4.10
2024-01-08T02:34:02.427Z,3.88
2024-01-08T02:36:29.118Z,3.85
2024-01-08T02:38:55.754Z,4.20
2024-01-08T02:41:22.406Z,4.20
2024-01-08T02:43:49.166Z,4.50
2024-01-08T02:46:15.857Z,4.45
2024-01-08T02:48:42.709Z,4.22
2024-01-08T02:51:09.468Z,4.97
2024-01-08T02:53:36.234Z,4.65
2024-01-08T02:56:03.007Z,4.10
2024-01-08T02:58:29.691Z,4.38
2024-01-08T03:00:57.146Z,4.57
2024-01-08T03:03:23.961Z,4.50
2024-01-08T03:05:50.657Z,4.75
2024-01-08T03:08:18.468Z,4.95
2024-01-08T03:10:45.221Z,4.03
2024-01-08T03:13:11.892Z,4.80
2024-01-08T03:15:38.491Z,4.30
2024-01-08T03:18:05.327Z,4.57
2024-01-08T03:20:32.232Z,3.97
2024-01-08T03:22:58.900Z,5.00
2024-01-08T03:25:25.686Z,4.68
2024-01-08T03:27:52.412Z,4.95
2024-01-08T03:30:19.239Z,5.45
2024-01-08T03:32:46.179Z,5.70
2024-01-08T03:35:14.257Z,4.60
2024-01-08T03:40:09.382Z,5.32
2024-01-08T03:42:36.192Z,5.40
2024-01-08T03:45:03.115Z,6.07
2024-01-08T03:47:29.894Z,5.57
2024-01-08T03:49:57.393Z,5.88
2024-01-08T03:52:24.393Z,5.82
2024-01-08T03:54:51.254Z,5.37
2024-01-08T03:57:18.139Z,6.67
2024-01-08T03:59:46.312Z,5.45
2024-01-08T04:02:14.463Z,5.97
2024-01-08T04:04:43.439Z,6.22
2024-01-08T04:07:13.357Z,5.60
2024-01-08T04:09:42.647Z,6.45
2024-01-08T04:12:11.133Z,6.15
2024-01-08T04:14:39.719Z,6.82
2024-01-08T04:17:07.515Z,6.43
2024-01-08T04:19:34.658Z,6.85
2024-01-08T04:22:01.526Z,6.47
2024-01-08T04:24:28.147Z,7.10
2024-01-08T04:26:54.781Z,8.25
2024-01-08T04:29:21.910Z,6.70
2024-01-08T04:31:48.901Z,7.60
2024-01-08T04:34:15.732Z,7.00
2024-01-08T04:36:44.954Z,7.18
2024-01-08T04:39:11.806Z,7.40
2024-01-08T04:41:39.848Z,7.55
2024-01-08T04:44:07.380Z,7.20
2024-01-08T04:46:34.070Z,7.80
2024-01-08T04:49:00.933Z,7.43
2024-01-08T04:51:27.818Z,8.33
2024-01-08T04:53:54.582Z,8.93
2024-01-08T04:56:22.036Z,8.88
2024-01-08T04:58:49.003Z,7.78
2024-01-08T05:01:15.829Z,7.80
2024-01-08T05:03:46.096Z,8.07
2024-01-08T05:06:13.755Z,8.02
2024-01-08T05:08:40.856Z,8.82
2024-01-08T05:11:08.117Z,8.40
2024-01-08T05:13:35.859Z,9.18
2024-01-08T05:16:03.045Z,8.10
2024-01-08T05:18:30.097Z,8.27
2024-01-08T05:20:57.251Z,8.67
2024-01-08T05:23:23.903Z,6.20
2024-01-08T05:25:50.824Z,9.20
2024-01-08T05:28:17.918Z,8.33
2024-01-08T05:30:47.193Z,7.90
2024-01-08T05:33:14.258Z,8.90
2024-01-08T05:35:42.216Z,8.48
2024-01-08T05:38:09.075Z,8.75
2024-01-08T05:40:35.785Z,8.02
2024-01-08T05:43:02.426Z,8.60
2024-01-08T05:45:29.164Z,8.20
2024-01-08T05:47:56.578Z,8.38
2024-01-08T05:50:26.975Z,6.53
2024-01-08T05:52:55.651Z,8.57
2024-01-08T05:55:23.008Z,12.60
2024-01-08T05:57:49.724Z,8.18
2024-01-08T06:00:17.568Z,7.38
2024-01-08T06:05:12.885Z,7.65
2024-01-08T06:07:40.583Z,7.18
2024-01-08T06:10:07.647Z,7.80
2024-01-08T06:12:34.400Z,6.70
2024-01-08T06:15:02.794Z,7.93
2024-01-08T06:17:29.703Z,7.22
2024-01-08T06:19:56.474Z,6.97
2024-01-08T06:22:23.295Z,6.38
2024-01-08T06:24:49.953Z,6.75
2024-01-08T06:27:18.167Z,7.05
2024-01-08T06:29:44.834Z,6.80
2024-01-08T06:32:11.831Z,6.38
2024-01-08T06:34:38.884Z,5.50
2024-01-08T06:37:07.137Z,7.03
2024-01-08T06:39:33.886Z,6.00
2024-01-08T06:42:00.929Z,7.15
2024-01-08T06:44:28.904Z,4.93
2024-01-08T06:46:56.002Z,6.78
2024-01-08T06:49:25.869Z,5.60
2024-01-08T06:51:52.521Z,5.75
2024-01-08T06:54:20.897Z,6.13
2024-01-08T06:56:47.819Z,4.40
2024-01-08T06:59:16.323Z,4.93
2024-01-08T07:01:44.244Z,5.00
2024-01-08T07:04:13.790Z,5.90
2024-01-08T07:06:41.067Z,6.18
2024-01-08T07:09:08.119Z,5.70
2024-01-08T07:11:35.294Z,6.40
2024-01-08T07:14:04.986Z,5.28
2024-01-08T07:16:32.990Z,3.67
2024-01-08T07:19:02.124Z,5.22
2024-01-08T07:21:30.428Z,4.88
2024-01-08T07:23:58.018Z,4.95
2024-01-08T07:26:27.797Z,5.55
2024-01-08T07:28:54.863Z,4.13
2024-01-08T07:33:41.420Z,4.30
2024-01-08T07:38:49.053Z,3.58
2024-01-08T07:41:17.284Z,5.17
2024-01-08T07:43:49.200Z,4.20
2024-01-08T07:46:16.115Z,4.53
2024-01-08T07:48:42.866Z,2.03
2024-01-08T07:53:54.874Z,4.35
2024-01-08T07:56:31.005Z,4.53
2024-01-08T07:58:59.024Z,4.85
2024-01-08T08:04:09.669Z,4.40
2024-01-08T08:06:40.046Z,5.20
2024-01-08T08:09:08.027Z,4.30
2024-01-08T08:11:36.242Z,4.45
2024-01-08T08:14:04.191Z,4.32
2024-01-08T08:18:57.880Z,4.38
2024-01-08T08:21:24.643Z,3.83
2024-01-08T08:23:52.338Z,4.68
2024-01-08T08:26:20.335Z,4.50
2024-01-08T08:31:24.533Z,2.58
2024-01-08T08:33:54.448Z,4.82
2024-01-08T08:36:22.675Z,3.97
2024-01-08T08:38:49.530Z,3.58
2024-01-08T08:41:17.949Z,4.22
2024-01-08T08:43:44.783Z,3.50
2024-01-08T08:46:11.430Z,4.03
2024-01-08T08:48:38.239Z,3.58
2024-01-08T08:51:06.711Z,3.78
2024-01-08T08:53:33.443Z,4.55
2024-01-08T08:56:00.319Z,4.78
2024-01-08T08:58:29.922Z,4.75
2024-01-08T09:00:58.281Z,5.03
2024-01-08T09:03:26.703Z,4.68
2024-01-08T09:05:56.303Z,5.47
2024-01-08T09:08:29.630Z,4.82
2024-01-08T09:13:36.771Z,5.28
2024-01-08T09:18:46.647Z,6.78
2024-01-08T09:21:14.223Z,6.05
2024-01-08T09:23:41.880Z,5.78
2024-01-08T09:26:08.976Z,5.25
2024-01-08T09:28:35.820Z,3.37
2024-01-08T09:31:04.906Z,4.97
2024-01-08T09:33:32.339Z,8.13
2024-01-08T09:35:59.460Z,5.18
2024-01-08T09:38:26.809Z,5.10
2024-01-08T09:40:58.817Z,3.92
2024-01-08T09:43:30.483Z,5.05
2024-01-08T09:46:05.002Z,2.97
2024-01-08T09:48:32.870Z,4.68
2024-01-08T09:53:30.062Z,4.85
2024-01-08T09:55:57.768Z,3.58
2024-01-08T09:58:30.691Z,4.65
2024-01-08T10:00:57.353Z,4.22
2024-01-08T10:03:24.463Z,4.68
2024-01-08T10:05:52.213Z,2.97
2024-01-08T10:08:19.611Z,2.72
2024-01-08T10:10:47.298Z,5.07
2024-01-08T10:13:15.902Z,5.43
2024-01-08T10:15:47.390Z,3.85
2024-01-08T10:18:17.920Z,4.32
2024-01-08T10:20:47.901Z,4.70
2024-01-08T10:23:19.267Z,3.90
2024-01-08T10:25:57.343Z,3.92
2024-01-08T10:28:25.205Z,2.55
2024-01-08T10:30:53.872Z,2.42
2024-01-08T10:33:21.257Z,2.72
2024-01-08T10:35:48.130Z,3.30
2024-01-08T10:38:15.404Z,4.20
2024-01-08T10:40:42.096Z,3.15
2024-01-08T10:43:10.193Z,4.30
2024-01-08T10:45:37.249Z,2.20
2024-01-08T10:48:19.534Z,2.50
2024-01-08T10:50:47.842Z,3.85
2024-01-08T10:53:31.446Z,3.47
2024-01-08T10:55:59.988Z,3.67
2024-01-08T10:58:36.470Z,3.58
2024-01-08T11:01:04.484Z,2.85
2024-01-08T11:03:32.078Z,3.72
2024-01-08T11:05:59.793Z,2.92
2024-01-08T11:08:26.990Z,3.70
2024-01-08T11:10:53.961Z,2.90
2024-01-08T11:13:23.991Z,3.60
2024-01-08T11:15:51.175Z,3.10
2024-01-08T11:18:30.727Z,3.10
2024-01-08T11:21:00.463Z,1.95
2024-01-08T11:23:43.581Z,2.10
2024-01-08T11:26:22.379Z,3.30
2024-01-08T11:29:01.892Z,3.95
2024-01-08T11:31:54.404Z,3.75
2024-01-08T11:34:54.349Z,3.40
2024-01-08T11:37:41.798Z,3.10
2024-01-08T11:40:28.650Z,3.30
2024-01-08T11:42:55.405Z,3.65
2024-01-08T11:45:22.942Z,3.22
2024-01-08T11:47:50.520Z,2.08
2024-01-08T11:50:17.476Z,3.03
2024-01-08T11:52:46.221Z,3.30
2024-01-08T11:55:13.543Z,4.18
2024-01-08T11:57:40.810Z,3.45
2024-01-08T12:00:12.576Z,3.95
2024-01-08T12:02:40.972Z,3.30
2024-01-08T12:05:08.519Z,3.90
2024-01-08T12:07:39.584Z,3.40
2024-01-08T12:10:10.850Z,3.10
2024-01-08T12:12:44.808Z,3.13
2024-01-08T12:15:16.305Z,3.22
2024-01-08T12:17:43.247Z,2.80
2024-01-08T12:20:11.420Z,2.87
2024-01-08T12:22:38.272Z,2.92
2024-01-08T12:25:07.583Z,1.60
2024-01-08T12:27:35.362Z,2.75
2024-01-08T12:30:03.981Z,1.63
2024-01-08T12:32:30.866Z,3.50
2024-01-08T12:34:58.662Z,3.03
2024-01-08T12:37:33.761Z,2.08
2024-01-08T12:40:01.341Z,2.40
2024-01-08T12:42:28.857Z,2.83
2024-01-08T12:44:56.419Z,2.92
2024-01-08T12:47:24.362Z,3.17
2024-01-08T12:49:51.824Z,3.00
2024-01-08T12:52:23.924Z,1.70
2024-01-08T12:54:58.302Z,2.90
2024-01-08T12:57:31.285Z,3.47
2024-01-08T12:59:58.942Z,1.88
2024-01-08T13:02:33.167Z,3.33
2024-01-08T13:05:01.899Z,2.97
2024-01-08T13:07:29.147Z,3.13
2024-01-08T13:10:00.286Z,2.70
2024-01-08T13:12:28.140Z,3.60
2024-01-08T13:14:55.825Z,2.65
2024-01-08T13:20:21.761Z,1.27
2024-01-08T13:22:52.938Z,3.25
2024-01-08T13:25:23.440Z,2.92
2024-01-08T13:30:33.806Z,3.05
2024-01-08T13:35:45.135Z,3.40
2024-01-08T13:40:57.044Z,3.50
2024-01-08T13:43:26.837Z,3.47
2024-01-08T13:45:55.162Z,3.10
2024-01-08T13:48:23.881Z,2.67
2024-01-08T13:50:54.545Z,3.60
2024-01-08T13:53:23.672Z,3.92
2024-01-08T13:55:53.588Z,2.88
2024-01-08T13:58:21.322Z,3.15
2024-01-08T14:00:49.641Z,1.23
2024-01-08T14:03:16.993Z,3.08
2024-01-08T14:05:43.838Z,3.05
2024-01-08T14:08:10.632Z,3.42
2024-01-08T14:10:37.327Z,2.28
2024-01-08T14:13:04.639Z,3.47
2024-01-08T14:15:34.545Z,3.65
2024-01-08T14:18:03.837Z,3.80
2024-01-08T14:20:33.213Z,3.15
2024-01-08T14:23:01.100Z,3.63
2024-01-08T14:30:38.137Z,3.58
2024-01-08T14:35:57.808Z,4.15
2024-01-08T14:38:26.075Z,2.72
2024-01-08T14:40:55.316Z,3.20
2024-01-08T14:43:22.289Z,3.55
2024-01-08T14:48:33.815Z,3.65
2024-01-08T14:51:11.408Z,2.80
2024-01-08T14:53:38.457Z,5.00
2024-01-08T14:56:05.600Z,3.40
2024-01-08T14:58:32.711Z,3.65
2024-01-08T15:00:59.514Z,4.27
2024-01-08T15:06:06.792Z,3.67
2024-01-08T15:08:33.770Z,5.78
2024-01-08T15:11:07.432Z,4.07
2024-01-08T15:13:35.895Z,3.50
2024-01-08T15:16:11.535Z,4.03
2024-01-08T15:18:42.251Z,4.35
2024-01-08T15:23:51.427Z,5.35
2024-01-08T15:29:03.142Z,3.45
2024-01-08T15:34:10.886Z,3.03
2024-01-08T15:36:38.745Z,4.53
2024-01-08T15:39:10.373Z,4.53
2024-01-08T15:41:37.182Z,4.70
2024-01-08T15:44:05.482Z,3.65
2024-01-08T15:46:32.359Z,4.03
2024-01-08T15:49:03.447Z,4.57
2024-01-08T15:51:33.656Z,3.83
2024-01-08T15:54:00.546Z,3.15
2024-01-08T15:56:27.446Z,4.97
2024-01-08T15:58:56.678Z,4.07
2024-01-08T16:01:23.388Z,4.55
2024-01-08T16:03:51.470Z,4.13
2024-01-08T16:06:21.673Z,4.70
2024-01-08T16:08:49.792Z,4.70
2024-01-08T16:11:18.472Z,4.50
2024-01-08T16:16:27.797Z,4.47
2024-01-08T16:21:35.694Z,5.05
2024-01-08T16:26:44.896Z,4.35
2024-01-08T16:31:53.786Z,4.90
2024-01-08T16:34:20.773Z,4.60
2024-01-08T16:36:50.088Z,4.40
2024-01-08T16:39:16.955Z,4.53
2024-01-08T16:41:44.056Z,2.42
2024-01-08T16:44:12.886Z,4.75
2024-01-08T16:46:40.850Z,5.25
2024-01-08T16:51:36.406Z,5.28
2024-01-08T16:54:05.751Z,6.93
2024-01-08T16:56:37.488Z,6.30
2024-01-08T16:59:06.620Z,4.97
2024-01-08T17:01:34.750Z,5.75
2024-01-08T17:04:01.850Z,4.75
2024-01-08T17:06:30.063Z,4.73
2024-01-08T17:09:05.374Z,3.05
2024-01-08T17:11:32.183Z,5.57
2024-01-08T17:13:59.354Z,5.03
2024-01-08T17:16:38.813Z,5.15
2024-01-08T17:19:05.923Z,4.80
2024-01-08T17:21:34.319Z,3.20
2024-01-08T17:24:01.262Z,5.35
2024-01-08T17:26:28.322Z,5.03
2024-01-08T17:28:56.857Z,4.43
2024-01-08T17:31:24.990Z,6.00
2024-01-08T17:33:52.005Z,5.32
2024-01-08T17:36:18.939Z,5.13
2024-01-08T17:38:45.978Z,5.50
2024-01-08T17:41:12.784Z,4.73
2024-01-08T17:43:39.910Z,5.57
2024-01-08T17:46:07.004Z,5.57
2024-01-08T17:48:33.756Z,4.70
2024-01-08T17:51:00.970Z,5.55
2024-01-08T17:53:30.567Z,5.68
2024-01-08T17:55:58.775Z,6.32
2024-01-08T17:58:28.287Z,6.28
2024-01-08T18:00:56.144Z,6.35
2024-01-08T18:03:22.812Z,7.68
2024-01-08T18:05:50.437Z,5.70
2024-01-08T18:10:57.815Z,6.32
2024-01-08T18:16:10.181Z,7.22
2024-01-08T18:24:20.247Z,5.93
2024-01-08T18:26:57.487Z,6.35
2024-01-08T18:29:26.429Z,5.28
2024-01-08T18:34:34.220Z,5.65
2024-01-08T18:39:44.303Z,6.32
2024-01-08T18:44:54.484Z,5.88
2024-01-08T18:50:03.176Z,5.55
2024-01-08T18:52:29.844Z,5.97
2024-01-08T18:58:41.222Z,5.25
2024-01-08T19:03:49.335Z,5.53
2024-01-08T19:06:18.706Z,5.53
2024-01-08T19:08:50.364Z,5.57
2024-01-08T19:11:17.219Z,5.93
2024-01-08T19:13:46.789Z,6.40
2024-01-08T19:16:21.138Z,6.45
2024-01-08T19:18:49.841Z,6.35
2024-01-08T19:23:58.588Z,5.72
2024-01-08T19:26:25.547Z,5.93
2024-01-08T19:28:53.780Z,5.97
2024-01-08T19:31:22.963Z,6.05
2024-01-08T19:33:52.133Z,6.05
2024-01-08T19:36:19.979Z,6.18
2024-01-08T19:41:21.576Z,6.20
2024-01-08T19:43:48.266Z,6.47
2024-01-08T19:46:24.317Z,5.35
2024-01-08T19:48:53.362Z,5.93
2024-01-08T19:51:20.148Z,5.80
2024-01-08T19:53:49.028Z,5.53
2024-01-08T19:56:19.296Z,6.18
2024-01-08T19:58:48.131Z,5.43
2024-01-08T20:01:18.089Z,6.35
2024-01-08T20:03:44.922Z,6.30
2024-01-08T20:06:11.762Z,6.82
2024-01-08T20:11:19.564Z,7.32
2024-01-08T20:16:26.908Z,6.32
2024-01-08T20:18:55.796Z,6.10
2024-01-08T20:21:24.552Z,7.15
2024-01-08T20:23:59.746Z,6.13
2024-01-08T20:26:26.511Z,6.47
2024-01-08T20:28:53.838Z,6.55
2024-01-08T20:31:25.751Z,6.27
2024-01-08T20:33:54.393Z,6.30
2024-01-08T20:36:22.616Z,6.40
2024-01-08T20:38:56.917Z,7.10
2024-01-08T20:41:23.748Z,6.53
2024-01-08T20:43:50.401Z,6.50
2024-01-08T20:46:21.135Z,6.60
2024-01-08T20:48:48.368Z,6.05
2024-01-08T20:51:16.509Z,5.88
2024-01-08T20:56:24.017Z,6.78
2024-01-08T20:58:51.714Z,5.45
2024-01-08T21:01:18.482Z,6.38
2024-01-08T21:03:48.183Z,6.47
2024-01-08T21:08:55.745Z,6.07
2024-01-08T21:14:04.619Z,7.03
2024-01-08T21:19:11.864Z,7.85
2024-01-08T21:21:39.259Z,5.07
2024-01-08T21:24:06.461Z,6.60
2024-01-08T21:26:35.943Z,7.47
2024-01-08T21:29:02.769Z,6.75
2024-01-08T21:31:29.449Z,6.07
2024-01-08T21:33:56.270Z,6.65
2024-01-08T21:39:04.392Z,7.63
2024-01-08T21:41:31.091Z,7.65
2024-01-08T21:44:00.003Z,7.70
2024-01-08T21:46:27.080Z,7.22
2024-01-08T21:48:53.973Z,5.27
2024-01-08T21:54:01.522Z,7.13
2024-01-08T21:56:28.267Z,6.82
2024-01-08T21:59:03.548Z,7.15
2024-01-08T22:01:32.855Z,6.68
2024-01-08T22:06:39.975Z,7.30
2024-01-08T22:09:06.651Z,7.35
2024-01-08T22:11:40.973Z,6.90
2024-01-08T22:14:07.679Z,6.70
2024-01-08T22:16:38.109Z,7.50
2024-01-08T22:19:04.898Z,6.82
2024-01-08T22:21:31.672Z,7.30
2024-01-08T22:26:39.121Z,7.30
2024-01-08T22:29:06.885Z,7.28
2024-01-08T22:34:14.599Z,7.53
2024-01-08T22:39:22.726Z,6.97
2024-01-08T22:44:31.071Z,7.03
2024-01-08T22:46:58.023Z,6.85
2024-01-08T22:52:05.408Z,6.85
2024-01-08T22:57:12.710Z,7.15
2024-01-08T22:59:43.100Z,6.17
2024-01-08T23:02:11.905Z,6.70
2024-01-08T23:04:42.254Z,7.18
2024-01-08T23:07:16.601Z,7.53
2024-01-08T23:09:45.932Z,7.13
2024-01-08T23:14:53.112Z,7.07
2024-01-08T23:17:26.941Z,5.15
2024-01-08T23:19:55.694Z,7.13
2024-01-08T23:22:23.512Z,7.22
2024-01-08T23:27:26.148Z,7.68
2024-01-08T23:29:54.007Z,7.50
2024-01-08T23:35:02.608Z,6.72
2024-01-08T23:40:10.656Z,7.15
2024-01-08T23:45:22.808Z,7.55
2024-01-08T23:50:30.934Z,7.35
2024-01-08T23:52:57.615Z,7.82
2024-01-08T23:55:32.258Z,7.00
2024-01-08T23:57:59.038Z,6.93
